Time;durP1;ratioP1;P1;durP2;ratioP2;P2;SDS_P1;SDS_P2;PMS_P1;PMS_P2;Temp;Humidity;BMP_temperature;BMP_pressure;BME280_temperature;BME280_humidity;BME280_pressure;Samples;Min_cycle;Max_cycle;Signal;HPM_P1;HPM_P2
2021/03/05 00:02:07;;;;;;;0.20;0.20;;;;;;;;;;5106392;28;20024;-62
2021/03/05 00:04:32;;;;;;;0.20;0.20;;;;;;;;;;5096435;28;20024;-63
2021/03/05 00:06:57;;;;;;;0.20;0.20;;;;;;;;;;5087556;28;20012;-62
2021/03/05 00:09:22;;;;;;;0.20;0.20;;;;;;;;;;5101620;28;20319;-63
2021/03/05 00:11:49;;;;;;;0.20;0.20;;;;;;;;;;5101221;28;20657;-62
2021/03/05 00:14:14;;;;;;;0.20;0.20;;;;;;;;;;5101547;28;20364;-63
2021/03/05 00:16:39;;;;;;;0.30;0.30;;;;;;;;;;5096178;28;20029;-63
2021/03/05 00:19:05;;;;;;;0.20;0.20;;;;;;;;;;5092793;28;20460;-63
2021/03/05 00:21:30;;;;;;;0.20;0.20;;;;;;;;;;5104391;28;20028;-63
2021/03/05 00:23:55;;;;;;;0.20;0.20;;;;;;;;;;5102558;28;20020;-63
2021/03/05 00:26:20;;;;;;;0.20;0.20;;;;;;;;;;5082085;28;20363;-63
2021/03/05 00:28:46;;;;;;;0.20;0.20;;;;;;;;;;5081437;28;20024;-63
2021/03/05 00:31:11;;;;;;;0.20;0.20;;;;;;;;;;5095429;28;20342;-62
2021/03/05 00:33:36;;;;;;;0.20;0.20;;;;;;;;;;5091665;28;20324;-63
2021/03/05 00:36:01;;;;;;;0.20;0.20;;;;;;;;;;5099208;28;20093;-63
2021/03/05 00:38:26;;;;;;;0.20;0.20;;;;;;;;;;5097252;28;20285;-63
2021/03/05 00:40:52;;;;;;;0.20;0.20;;;;;;;;;;5077288;28;20031;-62
2021/03/05 00:43:17;;;;;;;0.20;0.20;;;;;;;;;;5100049;28;20081;-63
2021/03/05 00:45:42;;;;;;;0.20;0.20;;;;;;;;;;5105567;28;20262;-63
2021/03/05 00:48:08;;;;;;;0.20;0.20;;;;;;;;;;5086777;28;20064;-62
2021/03/05 00:50:33;;;;;;;0.20;0.20;;;;;;;;;;5083297;28;20020;-62
2021/03/05 00:52:59;;;;;;;0.20;0.20;;;;;;;;;;5102294;28;20069;-63
2021/03/05 00:55:24;;;;;;;0.20;0.20;;;;;;;;;;5110143;28;20099;-63
2021/03/05 00:57:49;;;;;;;0.20;0.20;;;;;;;;;;5088864;28;20268;-63
2021/03/05 01:00:15;;;;;;;0.20;0.20;;;;;;;;;;5100228;28;20034;-63
2021/03/05 01:02:40;;;;;;;0.20;0.20;;;;;;;;;;5107433;28;20027;-63
2021/03/05 01:05:06;;;;;;;0.20;0.20;;;;;;;;;;5099515;28;20020;-63
2021/03/05 01:07:31;;;;;;;0.20;0.20;;;;;;;;;;5102684;28;20384;-63
2021/03/05 01:09:56;;;;;;;0.20;0.20;;;;;;;;;;5105863;28;20024;-63
2021/03/05 01:12:23;;;;;;;0.20;0.20;;;;;;;;;;5095372;28;20020;-63
2021/03/05 01:14:48;;;;;;;0.20;0.20;;;;;;;;;;5107669;28;20028;-63
2021/03/05 01:17:13;;;;;;;0.20;0.20;;;;;;;;;;5108374;28;20028;-63
2021/03/05 01:19:38;;;;;;;0.20;0.20;;;;;;;;;;5090301;28;20320;-63
2021/03/05 01:22:04;;;;;;;0.20;0.20;;;;;;;;;;5099754;28;20032;-63
2021/03/05 01:24:29;;;;;;;0.20;0.20;;;;;;;;;;5093559;28;20274;-62
2021/03/05 01:26:54;;;;;;;0.20;0.20;;;;;;;;;;5100308;28;20016;-64
2021/03/05 01:29:19;;;;;;;0.20;0.20;;;;;;;;;;5102667;28;20262;-63
2021/03/05 01:31:44;;;;;;;0.20;0.20;;;;;;;;;;5079184;28;20302;-62
2021/03/05 01:34:10;;;;;;;0.20;0.20;;;;;;;;;;5100895;28;20774;-63
2021/03/05 01:36:35;;;;;;;0.20;0.20;;;;;;;;;;5085884;28;20016;-63
2021/03/05 01:39:00;;;;;;;0.20;0.20;;;;;;;;;;5103764;28;20080;-63
2021/03/05 01:41:26;;;;;;;0.20;0.20;;;;;;;;;;5101543;28;20649;-63
2021/03/05 01:43:51;;;;;;;0.20;0.20;;;;;;;;;;5103201;28;20422;-62
2021/03/05 01:46:17;;;;;;;0.20;0.20;;;;;;;;;;5095761;28;20280;-63
2021/03/05 01:48:42;;;;;;;0.30;0.30;;;;;;;;;;5106552;28;20038;-63
2021/03/05 01:51:14;;;;;;;0.30;0.30;;;;;;;;;;5106531;28;20031;-63
2021/03/05 01:53:40;;;;;;;0.20;0.20;;;;;;;;;;5084582;28;20285;-63
2021/03/05 01:56:06;;;;;;;0.20;0.20;;;;;;;;;;5103703;28;20019;-63
2021/03/05 01:58:31;;;;;;;0.20;0.20;;;;;;;;;;5106036;28;20069;-63
2021/03/05 02:01:00;;;;;;;0.20;0.20;;;;;;;;;;5106413;28;20127;-63
2021/03/05 02:03:25;;;;;;;0.20;0.20;;;;;;;;;;5105437;28;20615;-62
2021/03/05 02:05:50;;;;;;;0.20;0.20;;;;;;;;;;5087970;28;20027;-63
2021/03/05 02:08:16;;;;;;;0.30;0.30;;;;;;;;;;5114765;28;20024;-63
2021/03/05 02:10:41;;;;;;;0.20;0.20;;;;;;;;;;5112715;28;20024;-63
2021/03/05 02:13:06;;;;;;;0.20;0.20;;;;;;;;;;5116888;28;20273;-63
2021/03/05 02:15:32;;;;;;;0.20;0.20;;;;;;;;;;5118020;28;20027;-63
2021/03/05 02:18:06;;;;;;;0.20;0.20;;;;;;;;;;5107853;28;20040;-63
2021/03/05 02:21:09;;;;;;;0.30;0.30;;;;;;;;;;5099492;28;20764;-63
2021/03/05 02:23:35;;;;;;;0.20;0.20;;;;;;;;;;5026375;28;20099;-63
2021/03/05 02:26:11;;;;;;;0.20;0.20;;;;;;;;;;5042358;28;20055;-63
2021/03/05 02:28:55;;;;;;;0.20;0.20;;;;;;;;;;5051357;28;20604;-62
2021/03/05 02:31:23;;;;;;;0.20;0.20;;;;;;;;;;5101544;28;20479;-63
2021/03/05 02:33:50;;;;;;;0.25;0.25;;;;;;;;;;5107281;28;20028;-63
2021/03/05 02:36:26;;;;;;;0.20;0.20;;;;;;;;;;5107684;28;20030;-62
2021/03/05 02:39:03;;;;;;;0.28;0.28;;;;;;;;;;5104780;28;20076;-63
2021/03/05 02:41:29;;;;;;;0.20;0.20;;;;;;;;;;5098547;28;20564;-63
2021/03/05 02:43:56;;;;;;;0.20;0.20;;;;;;;;;;5091405;28;20102;-63
2021/03/05 02:46:22;;;;;;;0.20;0.20;;;;;;;;;;5091653;28;20388;-62
2021/03/05 02:48:47;;;;;;;0.30;0.30;;;;;;;;;;5101134;28;20019;-63
2021/03/05 02:51:13;;;;;;;0.25;0.25;;;;;;;;;;5102669;28;20292;-62
2021/03/05 02:53:38;;;;;;;0.20;0.20;;;;;;;;;;5087272;28;20736;-62
2021/03/05 02:56:04;;;;;;;0.20;0.20;;;;;;;;;;5083267;28;20049;-63
2021/03/05 02:58:29;;;;;;;0.20;0.20;;;;;;;;;;5088449;28;20456;-63
2021/03/05 03:00:54;;;;;;;0.28;0.28;;;;;;;;;;5089282;28;20032;-63
2021/03/05 03:03:20;;;;;;;0.20;0.20;;;;;;;;;;5081699;28;20024;-62
2021/03/05 03:05:45;;;;;;;0.25;0.25;;;;;;;;;;5084579;28;20012;-63
2021/03/05 03:08:11;;;;;;;0.20;0.20;;;;;;;;;;5107933;28;20031;-62
2021/03/05 03:10:36;;;;;;;0.20;0.20;;;;;;;;;;5095731;28;20023;-63
2021/03/05 03:13:01;;;;;;;0.20;0.20;;;;;;;;;;5080922;28;20138;-63
2021/03/05 03:15:27;;;;;;;0.30;0.30;;;;;;;;;;5110448;28;20027;-63
2021/03/05 03:17:53;;;;;;;0.28;0.28;;;;;;;;;;5093549;28;20483;-63
2021/03/05 03:20:18;;;;;;;0.20;0.20;;;;;;;;;;5104660;28;20023;-63
2021/03/05 03:22:43;;;;;;;0.22;0.22;;;;;;;;;;5099163;28;20030;-63
2021/03/05 03:25:09;;;;;;;0.30;0.30;;;;;;;;;;5077589;28;20012;-63
2021/03/05 03:27:35;;;;;;;0.25;0.25;;;;;;;;;;5101922;28;20019;-63
2021/03/05 03:30:00;;;;;;;0.30;0.30;;;;;;;;;;5105010;28;20170;-62
2021/03/05 03:32:25;;;;;;;0.25;0.25;;;;;;;;;;5083647;28;20270;-62
2021/03/05 03:34:51;;;;;;;0.25;0.25;;;;;;;;;;5099214;28;20020;-62
2021/03/05 03:37:16;;;;;;;0.20;0.20;;;;;;;;;;5086732;28;20019;-62
2021/03/05 03:39:41;;;;;;;0.30;0.30;;;;;;;;;;5092615;28;20265;-62
2021/03/05 03:42:06;;;;;;;0.30;0.30;;;;;;;;;;5097567;28;20395;-62
2021/03/05 03:44:32;;;;;;;0.30;0.30;;;;;;;;;;5095570;28;20297;-62
2021/03/05 03:46:57;;;;;;;0.30;0.30;;;;;;;;;;5098455;28;20266;-62
2021/03/05 03:49:43;;;;;;;0.20;0.20;;;;;;;;;;5094018;28;20047;-62
2021/03/05 03:52:37;;;;;;;0.20;0.20;;;;;;;;;;5101754;28;20781;-62
2021/03/05 03:55:03;;;;;;;0.20;0.20;;;;;;;;;;5090067;28;20036;-62
2021/03/05 03:57:29;;;;;;;0.20;0.20;;;;;;;;;;5101526;28;20077;-63
2021/03/05 03:59:54;;;;;;;0.20;0.20;;;;;;;;;;5078175;28;20028;-62
2021/03/05 04:02:19;;;;;;;0.22;0.22;;;;;;;;;;5083441;28;20400;-62
2021/03/05 04:04:44;;;;;;;0.20;0.20;;;;;;;;;;5098586;28;20044;-63
2021/03/05 04:07:10;;;;;;;0.30;0.30;;;;;;;;;;5079244;28;20430;-62
2021/03/05 04:09:35;;;;;;;0.30;0.30;;;;;;;;;;5096668;28;20277;-62
2021/03/05 04:12:00;;;;;;;0.20;0.20;;;;;;;;;;5101756;28;20726;-62
2021/03/05 04:14:25;;;;;;;0.20;0.20;;;;;;;;;;5079680;28;20077;-62
2021/03/05 04:16:54;;;;;;;0.20;0.20;;;;;;;;;;5096720;28;20296;-63
2021/03/05 04:19:22;;;;;;;0.30;0.30;;;;;;;;;;5104979;28;21060;-63
2021/03/05 04:21:47;;;;;;;0.30;0.30;;;;;;;;;;5083119;28;20022;-62
2021/03/05 04:24:12;;;;;;;0.20;0.20;;;;;;;;;;5084235;28;20423;-62
2021/03/05 04:26:38;;;;;;;0.30;0.30;;;;;;;;;;5100585;28;20027;-62
2021/03/05 04:29:04;;;;;;;0.30;0.30;;;;;;;;;;5109864;28;20030;-62
2021/03/05 04:31:29;;;;;;;0.28;0.28;;;;;;;;;;5100225;28;20127;-62
2021/03/05 04:33:54;;;;;;;0.20;0.20;;;;;;;;;;5102141;28;20111;-62
2021/03/05 04:36:19;;;;;;;0.20;0.20;;;;;;;;;;5085014;28;20269;-62
2021/03/05 04:38:45;;;;;;;0.28;0.28;;;;;;;;;;5102267;28;20274;-62
2021/03/05 04:41:10;;;;;;;0.20;0.20;;;;;;;;;;5090999;28;20471;-62
2021/03/05 04:43:35;;;;;;;0.20;0.20;;;;;;;;;;5089001;28;20278;-63
2021/03/05 04:46:00;;;;;;;0.20;0.20;;;;;;;;;;5105852;28;20285;-62
2021/03/05 04:48:25;;;;;;;0.20;0.20;;;;;;;;;;5102004;28;20262;-62
2021/03/05 04:50:50;;;;;;;0.20;0.20;;;;;;;;;;5102913;28;20020;-62
2021/03/05 04:53:16;;;;;;;0.30;0.30;;;;;;;;;;5100238;28;20024;-62
2021/03/05 04:55:44;;;;;;;0.20;0.20;;;;;;;;;;5082438;28;20443;-62
2021/03/05 04:58:09;;;;;;;0.30;0.30;;;;;;;;;;5106691;28;20752;-62
2021/03/05 05:00:36;;;;;;;0.23;0.23;;;;;;;;;;5106741;28;20028;-63
2021/03/05 05:03:01;;;;;;;0.30;0.30;;;;;;;;;;5105960;28;20273;-62
2021/03/05 05:05:26;;;;;;;0.30;0.30;;;;;;;;;;5100980;28;20024;-62
2021/03/05 05:07:53;;;;;;;0.27;0.27;;;;;;;;;;5100386;28;20016;-62
2021/03/05 05:10:18;;;;;;;0.25;0.25;;;;;;;;;;5094021;28;20265;-63
2021/03/05 05:12:43;;;;;;;0.20;0.20;;;;;;;;;;5102752;28;20525;-62
2021/03/05 05:15:09;;;;;;;0.20;0.20;;;;;;;;;;5106838;28;20269;-62
2021/03/05 05:17:34;;;;;;;0.30;0.30;;;;;;;;;;5104680;28;20140;-63
2021/03/05 05:20:00;;;;;;;0.20;0.20;;;;;;;;;;5107154;28;20058;-63
2021/03/05 05:22:25;;;;;;;0.30;0.30;;;;;;;;;;5102253;28;20297;-63
2021/03/05 05:24:50;;;;;;;0.20;0.20;;;;;;;;;;5102864;28;20114;-62
2021/03/05 05:27:16;;;;;;;0.30;0.30;;;;;;;;;;5083868;28;20046;-62
2021/03/05 05:29:41;;;;;;;0.30;0.30;;;;;;;;;;5086015;28;20288;-63
2021/03/05 05:32:06;;;;;;;0.20;0.20;;;;;;;;;;5102079;28;20292;-63
2021/03/05 05:34:31;;;;;;;0.20;0.20;;;;;;;;;;5098805;28;20348;-63
2021/03/05 05:36:56;;;;;;;0.20;0.20;;;;;;;;;;5094170;28;20315;-63
2021/03/05 05:39:22;;;;;;;0.30;0.30;;;;;;;;;;5108240;28;20285;-63
2021/03/05 05:41:47;;;;;;;0.30;0.30;;;;;;;;;;5106187;28;20471;-63
2021/03/05 05:44:12;;;;;;;0.30;0.30;;;;;;;;;;5090372;28;20266;-64
2021/03/05 05:46:38;;;;;;;0.20;0.20;;;;;;;;;;5109559;28;20351;-63
2021/03/05 05:49:03;;;;;;;0.20;0.20;;;;;;;;;;5114204;28;20658;-64
2021/03/05 05:51:34;;;;;;;0.30;0.30;;;;;;;;;;5098240;28;20036;-63
2021/03/05 05:54:02;;;;;;;0.28;0.28;;;;;;;;;;5105567;28;20099;-63
2021/03/05 05:56:27;;;;;;;0.30;0.30;;;;;;;;;;5085184;28;20031;-62
2021/03/05 05:58:52;;;;;;;0.30;0.30;;;;;;;;;;5105600;28;20077;-63
2021/03/05 06:01:18;;;;;;;0.30;0.30;;;;;;;;;;5082239;28;20276;-63
2021/03/05 06:03:43;;;;;;;0.30;0.30;;;;;;;;;;5088228;28;20011;-63
2021/03/05 06:06:10;;;;;;;0.30;0.30;;;;;;;;;;5104854;28;20274;-63
2021/03/05 06:08:35;;;;;;;0.30;0.30;;;;;;;;;;5082055;28;20023;-62
2021/03/05 06:11:01;;;;;;;0.30;0.30;;;;;;;;;;5099871;28;20024;-62
2021/03/05 06:13:26;;;;;;;0.30;0.30;;;;;;;;;;5100406;28;20274;-62
2021/03/05 06:16:10;;;;;;;0.30;0.30;;;;;;;;;;5101709;28;20108;-64
2021/03/05 06:18:36;;;;;;;0.20;0.20;;;;;;;;;;5104802;28;20028;-62
2021/03/05 06:21:01;;;;;;;0.30;0.30;;;;;;;;;;5108512;28;20035;-66
2021/03/05 06:23:27;;;;;;;0.30;0.30;;;;;;;;;;5104450;28;20031;-66
2021/03/05 06:25:58;;;;;;;0.20;0.20;;;;;;;;;;5097320;28;20095;-66
2021/03/05 06:28:24;;;;;;;0.30;0.30;;;;;;;;;;5102597;28;20011;-66
2021/03/05 06:30:49;;;;;;;0.30;0.30;;;;;;;;;;5105082;28;20043;-66
2021/03/05 06:33:24;;;;;;;0.20;0.20;;;;;;;;;;5103219;28;20376;-66
2021/03/05 06:35:52;;;;;;;0.30;0.30;;;;;;;;;;5080372;28;20282;-66
2021/03/05 06:38:37;;;;;;;0.20;0.20;;;;;;;;;;5092968;28;20050;-64
2021/03/05 06:41:14;;;;;;;0.20;0.20;;;;;;;;;;5093626;28;20024;-66
2021/03/05 06:43:46;;;;;;;0.30;0.30;;;;;;;;;;5110196;28;20099;-65
2021/03/05 06:46:36;;;;;;;0.20;0.20;;;;;;;;;;5077207;28;20016;-65
2021/03/05 06:49:02;;;;;;;0.30;0.30;;;;;;;;;;5093200;28;20012;-63
2021/03/05 06:51:28;;;;;;;0.30;0.30;;;;;;;;;;5104711;28;20157;-67
2021/03/05 06:54:03;;;;;;;0.30;0.30;;;;;;;;;;5110327;28;20543;-64
2021/03/05 06:56:28;;;;;;;0.25;0.25;;;;;;;;;;5094015;28;20016;-64
2021/03/05 06:59:03;;;;;;;0.30;0.30;;;;;;;;;;5086066;28;20032;-64
2021/03/05 07:01:29;;;;;;;0.30;0.30;;;;;;;;;;5094076;28;20114;-64
2021/03/05 07:04:07;;;;;;;0.20;0.20;;;;;;;;;;5097728;28;20741;-64
2021/03/05 07:06:32;;;;;;;0.20;0.20;;;;;;;;;;5099836;28;20073;-62
2021/03/05 07:08:57;;;;;;;0.27;0.27;;;;;;;;;;5098794;28;20040;-62
2021/03/05 07:11:35;;;;;;;0.30;0.30;;;;;;;;;;5099374;28;20286;-62
2021/03/05 07:14:01;;;;;;;0.30;0.30;;;;;;;;;;5098340;28;20024;-62
2021/03/05 07:16:26;;;;;;;0.20;0.20;;;;;;;;;;5081380;28;20078;-62
2021/03/05 07:18:51;;;;;;;0.30;0.30;;;;;;;;;;5100096;28;20016;-62
2021/03/05 07:21:17;;;;;;;0.20;0.20;;;;;;;;;;5081821;28;20292;-62
2021/03/05 07:23:43;;;;;;;0.22;0.22;;;;;;;;;;5099486;28;20357;-62
2021/03/05 07:26:09;;;;;;;0.30;0.30;;;;;;;;;;5098556;28;20016;-63
2021/03/05 07:28:37;;;;;;;0.20;0.20;;;;;;;;;;5104951;28;20041;-62
2021/03/05 07:31:02;;;;;;;0.20;0.20;;;;;;;;;;5085188;28;20128;-62
2021/03/05 07:33:28;;;;;;;0.20;0.20;;;;;;;;;;5097420;28;20019;-62
2021/03/05 07:35:53;;;;;;;0.10;0.10;;;;;;;;;;5096897;28;20016;-62
2021/03/05 07:38:18;;;;;;;0.20;0.20;;;;;;;;;;5095359;28;20020;-62
2021/03/05 07:40:44;;;;;;;0.30;0.30;;;;;;;;;;5098665;28;20103;-62
2021/03/05 07:43:09;;;;;;;0.20;0.20;;;;;;;;;;5098997;28;20099;-62
2021/03/05 07:45:35;;;;;;;0.20;0.20;;;;;;;;;;5105038;28;20177;-63
2021/03/05 07:48:00;;;;;;;0.30;0.30;;;;;;;;;;5081701;28;20264;-63
2021/03/05 07:50:25;;;;;;;0.30;0.30;;;;;;;;;;5104186;28;20350;-64
2021/03/05 07:52:57;;;;;;;0.20;0.20;;;;;;;;;;5101215;28;20528;-63
2021/03/05 07:55:35;;;;;;;0.20;0.20;;;;;;;;;;5104258;28;20023;-63
2021/03/05 07:58:00;;;;;;;0.20;0.20;;;;;;;;;;5078086;28;20018;-63
2021/03/05 08:00:44;;;;;;;0.20;0.20;;;;;;;;;;5100734;28;20027;-63
2021/03/05 08:03:09;;;;;;;0.30;0.30;;;;;;;;;;5102448;28;20285;-63
2021/03/05 08:05:37;;;;;;;0.20;0.20;;;;;;;;;;5103682;28;20035;-64
2021/03/05 08:08:11;;;;;;;0.30;0.30;;;;;;;;;;5085827;28;20307;-64
2021/03/05 08:10:37;;;;;;;0.30;0.30;;;;;;;;;;5100729;28;20020;-63
2021/03/05 08:13:02;;;;;;;0.30;0.30;;;;;;;;;;5101159;28;20400;-63
2021/03/05 08:15:28;;;;;;;0.30;0.30;;;;;;;;;;5100278;28;20365;-64
2021/03/05 08:17:53;;;;;;;0.20;0.20;;;;;;;;;;5105281;28;20159;-65
2021/03/05 08:20:21;;;;;;;0.20;0.20;;;;;;;;;;5095876;28;20788;-64
2021/03/05 08:22:59;;;;;;;0.20;0.20;;;;;;;;;;5104017;28;20106;-64
2021/03/05 08:25:28;;;;;;;0.20;0.20;;;;;;;;;;5100451;28;20016;-65
2021/03/05 08:27:53;;;;;;;0.25;0.25;;;;;;;;;;5101979;28;20076;-63
2021/03/05 08:30:20;;;;;;;0.20;0.20;;;;;;;;;;5081362;28;20031;-63
2021/03/05 08:32:46;;;;;;;0.20;0.20;;;;;;;;;;5078759;28;20066;-63
2021/03/05 08:35:15;;;;;;;0.20;0.20;;;;;;;;;;5081025;28;20670;-64
2021/03/05 08:37:41;;;;;;;0.20;0.20;;;;;;;;;;5099369;28;20115;-63
2021/03/05 08:40:09;;;;;;;0.20;0.20;;;;;;;;;;5101786;28;20095;-64
2021/03/05 08:42:35;;;;;;;0.20;0.20;;;;;;;;;;5101769;28;20079;-64
2021/03/05 08:45:06;;;;;;;0.20;0.20;;;;;;;;;;5099790;28;20098;-64
2021/03/05 08:47:31;;;;;;;0.20;0.20;;;;;;;;;;5101308;28;20095;-64
2021/03/05 08:49:57;;;;;;;0.20;0.20;;;;;;;;;;5099200;28;20099;-64
2021/03/05 08:52:22;;;;;;;0.20;0.20;;;;;;;;;;5079190;28;20281;-64
2021/03/05 08:54:47;;;;;;;0.20;0.20;;;;;;;;;;5084604;28;20701;-64
2021/03/05 08:57:13;;;;;;;0.20;0.20;;;;;;;;;;5102016;28;20266;-64
2021/03/05 08:59:39;;;;;;;0.20;0.20;;;;;;;;;;5098411;28;21067;-64
2021/03/05 09:02:11;;;;;;;0.20;0.20;;;;;;;;;;5085631;28;20027;-64
2021/03/05 09:04:39;;;;;;;0.20;0.20;;;;;;;;;;5086011;28;20749;-64
2021/03/05 09:07:04;;;;;;;0.20;0.20;;;;;;;;;;5106501;28;20020;-64
2021/03/05 09:09:30;;;;;;;0.20;0.20;;;;;;;;;;5103929;28;20099;-64
2021/03/05 09:12:13;;;;;;;0.20;0.20;;;;;;;;;;5104316;28;20020;-64
2021/03/05 09:14:38;;;;;;;0.20;0.20;;;;;;;;;;5099571;28;20024;-64
2021/03/05 09:17:03;;;;;;;0.15;0.15;;;;;;;;;;5101446;28;20024;-64
2021/03/05 09:19:41;;;;;;;0.20;0.20;;;;;;;;;;5089018;28;20027;-64
2021/03/05 09:22:10;;;;;;;0.20;0.20;;;;;;;;;;5107026;28;20123;-65
2021/03/05 09:24:50;;;;;;;0.20;0.20;;;;;;;;;;5100839;28;20050;-65
2021/03/05 09:27:24;;;;;;;0.10;0.10;;;;;;;;;;5099856;28;20024;-64
2021/03/05 09:29:50;;;;;;;0.10;0.10;;;;;;;;;;5104142;28;20016;-65
2021/03/05 09:32:15;;;;;;;0.20;0.20;;;;;;;;;;5105899;28;20396;-64
2021/03/05 09:34:54;;;;;;;0.20;0.20;;;;;;;;;;5103562;28;20024;-64
2021/03/05 09:37:20;;;;;;;0.20;0.20;;;;;;;;;;5106388;28;20031;-65
2021/03/05 09:39:46;;;;;;;0.20;0.20;;;;;;;;;;5105640;28;20491;-64
2021/03/05 09:42:11;;;;;;;0.20;0.20;;;;;;;;;;5104652;28;20059;-65
2021/03/05 09:45:00;;;;;;;0.20;0.20;;;;;;;;;;5099450;28;20050;-64
2021/03/05 09:47:25;;;;;;;0.20;0.20;;;;;;;;;;5096917;28;20270;-64
2021/03/05 09:49:50;;;;;;;0.20;0.20;;;;;;;;;;5086019;28;20026;-64
2021/03/05 09:52:26;;;;;;;0.20;0.20;;;;;;;;;;5104364;28;20106;-64
2021/03/05 09:54:51;;;;;;;;;;;;;;;;;;5084408;28;20282;-64
2021/03/05 09:57:18;;;;;;;0.20;0.20;;;;;;;;;;5102845;28;19914;-64
2021/03/05 09:59:43;;;;;;;0.20;0.20;;;;;;;;;;5101449;28;20046;-64
2021/03/05 10:02:09;;;;;;;0.20;0.20;;;;;;;;;;5108306;28;20051;-64
2021/03/05 10:04:40;;;;;;;0.20;0.20;;;;;;;;;;5108803;28;20036;-64
2021/03/05 10:07:07;;;;;;;0.20;0.20;;;;;;;;;;5081949;28;20023;-64
2021/03/05 10:09:33;;;;;;;0.20;0.20;;;;;;;;;;5104489;28;20031;-64
2021/03/05 10:11:58;;;;;;;0.20;0.20;;;;;;;;;;5108643;28;20038;-64
2021/03/05 10:14:29;;;;;;;0.20;0.20;;;;;;;;;;5096746;28;20098;-64
2021/03/05 10:16:54;;;;;;;0.10;0.10;;;;;;;;;;5083119;28;20475;-64
2021/03/05 10:19:23;;;;;;;0.10;0.10;;;;;;;;;;5104222;28;20068;-64
2021/03/05 10:21:51;;;;;;;0.20;0.20;;;;;;;;;;5104057;28;20041;-64
2021/03/05 10:24:17;;;;;;;0.10;0.10;;;;;;;;;;5105483;28;20023;-64
2021/03/05 10:27:10;;;;;;;0.20;0.20;;;;;;;;;;5086453;28;20020;-65
2021/03/05 10:29:45;;;;;;;0.20;0.20;;;;;;;;;;5102976;28;20019;-65
2021/03/05 10:32:24;;;;;;;0.20;0.20;;;;;;;;;;5102689;28;20062;-65
2021/03/05 10:34:50;;;;;;;0.10;0.10;;;;;;;;;;5101389;28;20031;-66
2021/03/05 10:37:15;;;;;;;0.10;0.10;;;;;;;;;;5103992;28;20027;-66
2021/03/05 10:39:41;;;;;;;0.10;0.10;;;;;;;;;;5102563;28;20028;-65
2021/03/05 10:42:09;;;;;;;0.20;0.20;;;;;;;;;;5101587;28;20020;-66
2021/03/05 10:44:34;;;;;;;0.17;0.17;;;;;;;;;;5092062;28;20020;-65
2021/03/05 10:47:00;;;;;;;0.20;0.20;;;;;;;;;;5100210;28;20035;-65
2021/03/05 10:49:25;;;;;;;0.20;0.20;;;;;;;;;;5100900;28;20024;-65
2021/03/05 10:51:50;;;;;;;0.20;0.20;;;;;;;;;;5102143;28;20051;-65
2021/03/05 10:54:16;;;;;;;0.20;0.20;;;;;;;;;;5102672;28;20023;-65
2021/03/05 10:56:41;;;;;;;0.20;0.20;;;;;;;;;;5101403;28;20012;-65
2021/03/05 10:59:08;;;;;;;0.10;0.10;;;;;;;;;;5083131;28;20016;-65
2021/03/05 11:01:37;;;;;;;0.17;0.17;;;;;;;;;;5087126;28;20293;-65
2021/03/05 11:04:02;;;;;;;0.10;0.10;;;;;;;;;;5102365;27;20480;-65
2021/03/05 11:06:28;;;;;;;0.10;0.10;;;;;;;;;;5103072;28;20076;-65
2021/03/05 11:08:53;;;;;;;0.10;0.10;;;;;;;;;;5104168;28;20375;-65
2021/03/05 11:11:18;;;;;;;0.10;0.10;;;;;;;;;;5099702;28;20277;-65
2021/03/05 11:13:43;;;;;;;0.10;0.10;;;;;;;;;;5093414;28;20026;-65
2021/03/05 11:16:08;;;;;;;0.10;0.10;;;;;;;;;;5082781;28;20096;-65
2021/03/05 11:18:33;;;;;;;0.10;0.10;;;;;;;;;;5084058;28;20035;-65
2021/03/05 11:20:59;;;;;;;0.10;0.10;;;;;;;;;;5101694;28;20730;-65
2021/03/05 11:23:24;;;;;;;0.10;0.10;;;;;;;;;;5102299;28;20273;-65
2021/03/05 11:25:50;;;;;;;0.10;0.10;;;;;;;;;;5103171;27;20096;-65
2021/03/05 11:28:16;;;;;;;0.05;0.05;;;;;;;;;;5100829;28;20272;-65
2021/03/05 11:30:43;;;;;;;0.10;0.10;;;;;;;;;;5100637;28;20020;-65
2021/03/05 11:33:08;;;;;;;0.10;0.10;;;;;;;;;;5083155;28;20038;-65
2021/03/05 11:35:48;;;;;;;0.00;0.00;;;;;;;;;;5101648;28;20098;-66
2021/03/05 11:38:17;;;;;;;0.03;0.03;;;;;;;;;;5083869;28;20046;-66
2021/03/05 11:41:00;;;;;;;0.10;0.10;;;;;;;;;;5081082;28;20020;-67
2021/03/05 11:43:25;;;;;;;0.00;0.00;;;;;;;;;;5095090;28;20503;-65
2021/03/05 11:45:51;;;;;;;0.00;0.00;;;;;;;;;;5082562;28;20077;-66
2021/03/05 11:48:18;;;;;;;0.00;0.00;;;;;;;;;;5083599;28;20023;-65
2021/03/05 11:50:43;;;;;;;0.00;0.00;;;;;;;;;;5099171;28;20020;-65
2021/03/05 11:53:11;;;;;;;0.00;0.00;;;;;;;;;;5107977;28;20026;-65
2021/03/05 11:55:36;;;;;;;0.00;0.00;;;;;;;;;;5102753;27;20040;-65
2021/03/05 11:58:02;;;;;;;0.00;0.00;;;;;;;;;;5095384;28;20027;-65
2021/03/05 12:00:28;;;;;;;0.00;0.00;;;;;;;;;;5105842;28;20485;-66
2021/03/05 12:03:00;;;;;;;0.00;0.00;;;;;;;;;;5097143;28;20060;-65
2021/03/05 12:05:45;;;;;;;0.00;0.00;;;;;;;;;;5081524;28;20050;-66
2021/03/05 12:08:10;;;;;;;0.00;0.00;;;;;;;;;;5099596;28;20076;-65
2021/03/05 12:10:36;;;;;;;0.00;0.00;;;;;;;;;;5105761;28;20020;-66
2021/03/05 12:13:05;;;;;;;0.00;0.00;;;;;;;;;;5100872;28;20028;-67
2021/03/05 12:15:34;;;;;;;0.00;0.00;;;;;;;;;;5081372;28;20471;-67
2021/03/05 12:18:06;;;;;;;0.00;0.00;;;;;;;;;;5080723;28;20028;-66
2021/03/05 12:20:32;;;;;;;0.00;0.00;;;;;;;;;;5102762;28;20022;-65
2021/03/05 12:22:57;;;;;;;0.00;0.00;;;;;;;;;;5100590;28;20031;-65
2021/03/05 12:25:22;;;;;;;0.00;0.00;;;;;;;;;;5099947;28;20043;-65
2021/03/05 12:27:47;;;;;;;0.00;0.00;;;;;;;;;;5099949;28;20073;-65
2021/03/05 12:30:13;;;;;;;0.00;0.00;;;;;;;;;;5102559;28;20016;-65
2021/03/05 12:32:38;;;;;;;0.00;0.00;;;;;;;;;;5106185;28;20118;-65
2021/03/05 12:35:04;;;;;;;0.00;0.00;;;;;;;;;;5100206;28;20024;-65
2021/03/05 12:37:29;;;;;;;0.00;0.00;;;;;;;;;;5104409;28;20031;-65
2021/03/05 12:39:58;;;;;;;0.00;0.00;;;;;;;;;;5103533;28;20019;-65
2021/03/05 12:42:23;;;;;;;0.00;0.00;;;;;;;;;;5103697;28;20353;-65
2021/03/05 12:44:51;;;;;;;0.00;0.00;;;;;;;;;;5085417;28;20069;-65
2021/03/05 12:47:19;;;;;;;0.00;0.00;;;;;;;;;;5088664;28;20762;-65
2021/03/05 12:49:44;;;;;;;0.00;0.00;;;;;;;;;;5105060;28;20027;-65
2021/03/05 12:52:09;;;;;;;0.00;0.00;;;;;;;;;;5084021;28;20027;-65
2021/03/05 12:54:35;;;;;;;0.00;0.00;;;;;;;;;;5108819;28;20385;-65
2021/03/05 12:57:00;;;;;;;0.00;0.00;;;;;;;;;;5105542;28;20533;-65
2021/03/05 12:59:25;;;;;;;0.00;0.00;;;;;;;;;;5087243;28;20028;-65
2021/03/05 13:01:50;;;;;;;0.00;0.00;;;;;;;;;;5104341;28;20028;-65
2021/03/05 13:04:18;;;;;;;0.00;0.00;;;;;;;;;;5087181;28;20273;-66
2021/03/05 13:06:44;;;;;;;0.00;0.00;;;;;;;;;;5104164;28;20016;-65
2021/03/05 13:09:09;;;;;;;0.00;0.00;;;;;;;;;;5103016;28;20699;-65
2021/03/05 13:11:36;;;;;;;0.00;0.00;;;;;;;;;;5103029;28;20278;-65
2021/03/05 13:14:01;;;;;;;0.00;0.00;;;;;;;;;;5106061;28;20475;-65
2021/03/05 13:16:26;;;;;;;0.00;0.00;;;;;;;;;;5105000;28;20107;-65
2021/03/05 13:18:51;;;;;;;0.10;0.10;;;;;;;;;;5104263;28;20265;-65
2021/03/05 13:21:16;;;;;;;0.00;0.00;;;;;;;;;;5085911;28;20358;-65
2021/03/05 13:23:42;;;;;;;0.00;0.00;;;;;;;;;;5103657;28;20285;-65
2021/03/05 13:26:12;;;;;;;0.10;0.10;;;;;;;;;;5107475;28;20028;-65
2021/03/05 13:28:37;;;;;;;0.10;0.10;;;;;;;;;;5103428;28;20093;-66
2021/03/05 13:31:03;;;;;;;0.10;0.10;;;;;;;;;;5103708;28;20461;-66
2021/03/05 13:33:32;;;;;;;0.00;0.00;;;;;;;;;;5083850;28;20155;-65
2021/03/05 13:35:58;;;;;;;0.10;0.10;;;;;;;;;;5085214;28;20132;-65
2021/03/05 13:38:23;;;;;;;0.10;0.10;;;;;;;;;;5081158;28;20421;-65
2021/03/05 13:40:53;;;;;;;0.10;0.10;;;;;;;;;;5080706;28;20020;-66
2021/03/05 13:43:18;;;;;;;0.10;0.10;;;;;;;;;;5080670;28;20115;-66
2021/03/05 13:45:47;;;;;;;0.10;0.10;;;;;;;;;;5064579;28;20012;-65
2021/03/05 13:48:16;;;;;;;0.10;0.10;;;;;;;;;;5085023;28;20021;-66
2021/03/05 13:50:42;;;;;;;0.10;0.10;;;;;;;;;;5081813;28;20103;-66
2021/03/05 13:53:08;;;;;;;0.10;0.10;;;;;;;;;;5082089;28;20054;-66
2021/03/05 13:55:33;;;;;;;0.10;0.10;;;;;;;;;;5087407;28;20282;-66
2021/03/05 13:57:58;;;;;;;0.10;0.10;;;;;;;;;;5066775;28;20040;-66
2021/03/05 14:00:31;;;;;;;0.10;0.10;;;;;;;;;;5081833;28;20035;-67
2021/03/05 14:02:57;;;;;;;0.10;0.10;;;;;;;;;;5064192;28;20275;-65
2021/03/05 14:05:22;;;;;;;0.10;0.10;;;;;;;;;;5081319;28;20035;-65
2021/03/05 14:07:50;;;;;;;0.10;0.10;;;;;;;;;;5083625;28;20476;-65
2021/03/05 14:10:27;;;;;;;0.10;0.10;;;;;;;;;;5080450;28;20274;-66
2021/03/05 14:13:07;;;;;;;0.10;0.10;;;;;;;;;;5068644;28;20024;-67
2021/03/05 14:15:49;;;;;;;0.10;0.10;;;;;;;;;;5083790;28;20075;-64
2021/03/05 14:18:15;;;;;;;0.00;0.00;;;;;;;;;;5083380;28;20480;-64
2021/03/05 14:20:40;;;;;;;0.00;0.00;;;;;;;;;;5083870;28;20051;-64
2021/03/05 14:23:05;;;;;;;0.00;0.00;;;;;;;;;;5065915;28;20476;-64
2021/03/05 14:25:31;;;;;;;0.00;0.00;;;;;;;;;;5064212;28;20042;-64
2021/03/05 14:27:56;;;;;;;0.00;0.00;;;;;;;;;;5082319;28;20074;-64
2021/03/05 14:30:24;;;;;;;0.00;0.00;;;;;;;;;;5082418;28;20626;-64
2021/03/05 14:32:49;;;;;;;0.00;0.00;;;;;;;;;;5095410;28;20442;-64
2021/03/05 14:35:16;;;;;;;0.00;0.00;;;;;;;;;;5103086;28;20032;-64
2021/03/05 14:37:41;;;;;;;0.00;0.00;;;;;;;;;;5101845;28;20273;-65
2021/03/05 14:40:06;;;;;;;0.00;0.00;;;;;;;;;;5099696;28;20034;-66
2021/03/05 14:42:32;;;;;;;0.00;0.00;;;;;;;;;;5103993;28;20106;-66
2021/03/05 14:44:57;;;;;;;0.00;0.00;;;;;;;;;;5100506;28;20378;-65